createdAt,value
2022-12-31T00:00:30.857Z,80.21
2022-12-31T00:05:38.865Z,80.79
2022-12-31T00:10:45.066Z,81.70
2022-12-31T00:15:49.493Z,80.18
2022-12-31T00:20:55.209Z,78.81
2022-12-31T00:26:04.397Z,80.75
2022-12-31T00:31:10.687Z,82.74
2022-12-31T00:36:18.591Z,83.78
2022-12-31T00:41:23.770Z,85.13
2022-12-31T00:46:28.135Z,83.91
2022-12-31T00:51:33.703Z,83.35
2022-12-31T00:56:37.801Z,81.74
2022-12-31T01:01:43.414Z,81.75
2022-12-31T01:06:50.022Z,82.04
2022-12-31T01:11:54.011Z,82.26
2022-12-31T01:16:58.014Z,81.96
2022-12-31T01:22:03.428Z,81.05
2022-12-31T01:27:07.665Z,82.08
2022-12-31T01:32:12.126Z,83.20
2022-12-31T01:37:17.475Z,84.18
2022-12-31T01:42:21.697Z,83.61
2022-12-31T01:47:35.700Z,82.94
2022-12-31T01:52:46.568Z,81.96
2022-12-31T01:57:55.547Z,82.04
2022-12-31T02:03:00.496Z,82.81
2022-12-31T02:08:07.809Z,82.56
2022-12-31T02:13:12.638Z,81.76
2022-12-31T02:18:25.491Z,80.86
2022-12-31T02:24:11.094Z,80.40
2022-12-31T02:29:47.748Z,80.99
2022-12-31T02:34:56.881Z,80.71
2022-12-31T02:40:02.257Z,81.60
2022-12-31T02:45:08.128Z,81.94
2022-12-31T02:50:31.139Z,82.11
2022-12-31T02:55:46.071Z,82.72
2022-12-31T03:01:12.983Z,83.39
2022-12-31T03:06:21.274Z,83.25
2022-12-31T03:11:39.115Z,82.77
2022-12-31T03:16:43.484Z,81.44
2022-12-31T03:22:06.214Z,82.24
2022-12-31T03:27:10.496Z,81.14
2022-12-31T03:32:14.417Z,81.56
2022-12-31T03:37:19.833Z,82.65
2022-12-31T03:42:25.381Z,81.54
2022-12-31T03:47:29.715Z,81.59
2022-12-31T03:52:37.294Z,82.61
2022-12-31T03:57:45.172Z,81.31
2022-12-31T04:02:50.780Z,81.63
2022-12-31T04:07:56.553Z,82.88
2022-12-31T04:13:02.524Z,82.24
2022-12-31T04:18:07.079Z,81.13
2022-12-31T04:23:13.632Z,81.07
2022-12-31T04:28:17.852Z,81.09
2022-12-31T04:33:22.306Z,82.71
2022-12-31T04:38:29.878Z,84.57
2022-12-31T04:43:33.874Z,86.78
2022-12-31T04:48:38.354Z,86.10
2022-12-31T04:53:43.853Z,85.41
2022-12-31T04:58:48.898Z,84.00
2022-12-31T05:03:53.239Z,84.51
2022-12-31T05:08:59.085Z,83.79
2022-12-31T05:14:03.073Z,83.32
2022-12-31T05:19:09.772Z,85.27
2022-12-31T05:24:15.132Z,85.11
2022-12-31T05:29:19.179Z,84.84
2022-12-31T05:34:23.240Z,83.95
2022-12-31T05:39:28.660Z,84.46
2022-12-31T05:44:33.078Z,84.59
2022-12-31T05:49:37.177Z,86.34
2022-12-31T05:54:43.083Z,85.42
2022-12-31T05:59:47.038Z,84.28
2022-12-31T06:04:51.914Z,84.59
2022-12-31T06:09:57.612Z,86.50
2022-12-31T06:15:01.621Z,86.78
2022-12-31T06:20:12.854Z,87.97
2022-12-31T06:25:19.011Z,88.42
2022-12-31T06:30:25.580Z,88.46
2022-12-31T06:35:29.579Z,88.38
2022-12-31T06:40:38.014Z,88.38
2022-12-31T06:45:42.861Z,88.58
2022-12-31T06:50:47.284Z,87.74
2022-12-31T06:55:53.838Z,88.69
2022-12-31T07:01:03.341Z,86.72
2022-12-31T07:06:14.927Z,85.20
2022-12-31T07:11:24.315Z,82.17
2022-12-31T07:16:37.593Z,77.70
2022-12-31T07:21:42.693Z,75.72
2022-12-31T07:27:03.112Z,73.41
2022-12-31T07:32:17.661Z,70.46
2022-12-31T07:37:32.971Z,66.37
2022-12-31T07:42:55.266Z,65.20
2022-12-31T07:48:02.787Z,63.94
2022-12-31T07:53:07.642Z,61.32
2022-12-31T07:58:23.675Z,60.12
2022-12-31T08:03:48.078Z,59.26
2022-12-31T08:08:59.962Z,58.78
2022-12-31T08:14:11.975Z,57.29
2022-12-31T08:19:25.931Z,55.68
2022-12-31T08:24:41.679Z,54.56
2022-12-31T08:29:56.088Z,53.30
2022-12-31T08:35:04.565Z,51.47
2022-12-31T08:40:19.899Z,51.57
2022-12-31T08:45:30.204Z,50.93
2022-12-31T08:50:35.249Z,50.46
2022-12-31T08:55:39.853Z,48.90
2022-12-31T09:00:49.436Z,47.62
2022-12-31T09:06:15.257Z,46.88
2022-12-31T09:11:24.627Z,45.50
2022-12-31T09:16:38.311Z,46.02
2022-12-31T09:21:44.753Z,47.08
2022-12-31T09:26:58.844Z,46.05
2022-12-31T09:32:11.768Z,45.35
2022-12-31T09:37:19.749Z,43.68
2022-12-31T09:42:53.524Z,42.67
2022-12-31T09:48:45.815Z,38.14
2022-12-31T09:54:06.633Z,36.26
2022-12-31T09:59:18.677Z,34.82
2022-12-31T10:04:55.885Z,35.43
2022-12-31T10:10:12.187Z,33.69
2022-12-31T10:15:43.120Z,33.59
2022-12-31T10:21:04.412Z,34.63
2022-12-31T10:26:32.995Z,34.67
2022-12-31T10:31:45.345Z,37.16
2022-12-31T10:37:08.080Z,38.06
2022-12-31T10:42:47.757Z,38.11
2022-12-31T10:48:34.247Z,38.69
2022-12-31T10:54:06.356Z,39.10
2022-12-31T10:59:42.368Z,39.34
2022-12-31T11:05:13.126Z,40.15
2022-12-31T11:11:08.027Z,39.87
2022-12-31T11:16:34.715Z,39.72
2022-12-31T11:22:02.107Z,40.79
2022-12-31T11:27:23.885Z,41.56
2022-12-31T11:32:51.453Z,41.46
2022-12-31T11:38:05.923Z,40.85
2022-12-31T11:43:30.530Z,40.25
2022-12-31T11:48:48.960Z,40.27
2022-12-31T11:54:28.789Z,41.63
2022-12-31T11:59:33.704Z,41.17
2022-12-31T12:04:39.847Z,41.38
2022-12-31T12:09:45.801Z,41.77
2022-12-31T12:14:55.406Z,39.44
2022-12-31T12:20:05.926Z,39.26
2022-12-31T12:25:22.418Z,39.80
2022-12-31T12:30:29.226Z,38.42
2022-12-31T12:35:36.715Z,38.37
2022-12-31T12:40:41.349Z,38.60
2022-12-31T12:45:52.045Z,38.03
2022-12-31T12:51:13.129Z,38.09
2022-12-31T12:56:43.597Z,38.32
2022-12-31T13:02:16.371Z,38.63
2022-12-31T13:08:20.249Z,39.75
2022-12-31T13:14:17.257Z,40.03
2022-12-31T13:19:43.826Z,38.76
2022-12-31T13:25:05.904Z,39.62
2022-12-31T13:30:44.611Z,40.92
2022-12-31T13:36:16.416Z,41.82
2022-12-31T13:41:56.781Z,43.07
2022-12-31T13:47:34.352Z,43.16
2022-12-31T13:52:44.005Z,42.33
2022-12-31T13:57:54.777Z,43.79
2022-12-31T14:03:12.638Z,45.20
2022-12-31T14:08:17.235Z,46.63
2022-12-31T14:13:40.558Z,50.27
2022-12-31T14:18:55.343Z,52.34
2022-12-31T14:24:06.531Z,52.92
2022-12-31T14:29:24.702Z,54.34
2022-12-31T14:34:42.522Z,55.17
2022-12-31T14:40:01.087Z,56.51
2022-12-31T14:45:37.555Z,57.17
2022-12-31T14:50:45.353Z,57.69
2022-12-31T14:55:59.380Z,58.95
2022-12-31T15:01:09.122Z,60.68
2022-12-31T15:06:42.509Z,61.78
2022-12-31T15:12:06.796Z,63.40
2022-12-31T15:17:27.694Z,64.25
2022-12-31T15:22:38.001Z,64.93
2022-12-31T15:27:42.696Z,65.93
2022-12-31T15:32:48.948Z,67.21
2022-12-31T15:38:01.702Z,68.30
2022-12-31T15:43:15.581Z,68.79
2022-12-31T15:48:25.108Z,69.59
2022-12-31T15:53:35.104Z,70.21
2022-12-31T15:58:39.923Z,71.14
2022-12-31T16:03:51.894Z,70.79
2022-12-31T16:08:57.082Z,70.93
2022-12-31T16:14:01.871Z,70.57
2022-12-31T16:19:35.187Z,70.79
2022-12-31T16:25:02.697Z,70.89
2022-12-31T16:30:08.736Z,71.20
2022-12-31T16:35:25.881Z,72.79
2022-12-31T16:40:29.911Z,73.90
2022-12-31T16:45:37.057Z,74.82
2022-12-31T16:50:46.484Z,74.62
2022-12-31T16:55:58.850Z,74.62
2022-12-31T17:01:14.331Z,74.79
2022-12-31T17:06:22.389Z,75.50
2022-12-31T17:11:32.848Z,76.24
2022-12-31T17:16:42.194Z,76.97
2022-12-31T17:21:53.920Z,75.56
2022-12-31T17:27:07.449Z,76.15
2022-12-31T17:32:32.397Z,77.84
2022-12-31T17:37:38.373Z,78.09
2022-12-31T17:42:43.339Z,77.70
2022-12-31T17:47:51.680Z,77.81
2022-12-31T17:53:00.720Z,78.69
2022-12-31T17:58:08.103Z,79.52
2022-12-31T18:03:12.273Z,79.62
2022-12-31T18:08:17.747Z,79.66
2022-12-31T18:13:25.110Z,79.48
2022-12-31T18:18:31.199Z,79.66
2022-12-31T18:23:39.847Z,79.36
2022-12-31T18:28:46.695Z,79.37
2022-12-31T18:33:51.733Z,79.26
2022-12-31T18:38:57.256Z,77.90
2022-12-31T18:44:02.053Z,78.01
2022-12-31T18:49:07.351Z,78.93
2022-12-31T18:54:13.011Z,78.50
2022-12-31T18:59:17.898Z,78.72
2022-12-31T19:04:28.281Z,79.82
2022-12-31T19:09:54.626Z,79.95
2022-12-31T19:14:59.923Z,78.98
2022-12-31T19:20:04.645Z,79.36
2022-12-31T19:25:19.682Z,79.73
2022-12-31T19:30:27.778Z,78.97
2022-12-31T19:35:32.152Z,79.38
2022-12-31T19:40:39.775Z,79.70
2022-12-31T19:45:45.824Z,79.72
2022-12-31T19:50:52.927Z,80.24
2022-12-31T19:55:58.555Z,80.79
2022-12-31T20:01:03.444Z,79.96
2022-12-31T20:06:10.233Z,79.40
2022-12-31T20:11:17.386Z,78.73
2022-12-31T20:16:23.744Z,78.96
2022-12-31T20:21:30.276Z,79.27
2022-12-31T20:26:35.748Z,81.39
2022-12-31T20:31:39.995Z,81.60
2022-12-31T20:36:44.153Z,81.61
2022-12-31T20:41:52.278Z,80.76
2022-12-31T20:46:56.489Z,81.46
2022-12-31T20:52:01.161Z,79.76
2022-12-31T20:57:06.980Z,79.83
2022-12-31T21:02:29.507Z,79.60
2022-12-31T21:07:40.283Z,81.93
2022-12-31T21:12:46.632Z,80.36
2022-12-31T21:17:53.232Z,80.35
2022-12-31T21:22:58.511Z,80.35
2022-12-31T21:28:03.835Z,81.47
2022-12-31T21:33:08.380Z,80.74
2022-12-31T21:38:12.614Z,82.17
2022-12-31T21:43:21.246Z,82.17
2022-12-31T21:48:25.695Z,82.32
2022-12-31T21:53:36.690Z,82.38
2022-12-31T21:58:44.997Z,82.81
2022-12-31T22:03:49.228Z,81.28
2022-12-31T22:08:56.025Z,80.24
2022-12-31T22:14:01.595Z,82.05
2022-12-31T22:19:06.332Z,82.25
2022-12-31T22:24:10.829Z,82.25
2022-12-31T22:29:16.422Z,82.89
2022-12-31T22:34:21.609Z,83.69
2022-12-31T22:39:44.533Z,83.04
2022-12-31T22:44:54.436Z,82.26
2022-12-31T22:49:58.972Z,81.05
2022-12-31T22:55:05.479Z,82.73
2022-12-31T23:00:15.190Z,83.43
2022-12-31T23:05:20.802Z,83.89
2022-12-31T23:10:41.990Z,83.04
2022-12-31T23:16:04.963Z,81.50
2022-12-31T23:21:29.839Z,80.10
2022-12-31T23:26:33.984Z,80.93
2022-12-31T23:31:42.800Z,81.19
2022-12-31T23:36:47.513Z,81.76
2022-12-31T23:41:51.653Z,82.78
2022-12-31T23:46:57.502Z,82.29
2022-12-31T23:52:01.835Z,81.82
2022-12-31T23:57:06.220Z,83.17
